FAWB/PRY METAR and TAF weather

Enter ICAO airport designator
Station Type Date Time Source
FAWB METAR 2021/05/11 15:00 UTC NOAA

FAWB 111500Z AUTO 27003KT //// // ////// 24/03 Q1025


Station Type Date Time Source
FAWB Decoded METAR 2021/05/11 15:00 UTC NOAA

Wonderboom / Pretoria, South Africa (FAWB) 25-39S 028-13E
May 11, 2021 - 11:00 AM EDT / 2021.05.11 1500 UTC
Wind: from the W (270 degrees) at 3 MPH (3 KT):0
Temperature: 75 F (24 C)
Dew Point: 37 F (3 C)
Relative Humidity: 25%
Pressure (altimeter): 30.27 in. Hg (1025 hPa)
ob: FAWB 111500Z AUTO 27003KT //// // ////// 24/03 Q1025
cycle: 15

Station Type Date Time Source
FAWB TAF 2021/05/05 07:00 UTC NOAA

TAF FAWB 050608Z 0507/0518 VRB03KT CAVOK TX24/0512Z TN15/0518Z

Example: see airport list